createdAt,value
2017-11-27T00:00:07.783Z,0.00
2017-11-27T00:01:07.821Z,0.00
2017-11-27T00:02:07.883Z,0.00
2017-11-27T00:03:07.908Z,0.00
2017-11-27T00:04:07.949Z,0.00
2017-11-27T00:05:07.989Z,0.00
2017-11-27T00:06:08.037Z,0.00
2017-11-27T00:07:08.093Z,0.00
2017-11-27T00:08:08.131Z,0.00
2017-11-27T00:09:08.159Z,0.00
2017-11-27T00:10:08.200Z,0.00
2017-11-27T00:11:08.242Z,0.00
2017-11-27T00:12:08.301Z,0.00
2017-11-27T00:13:08.358Z,0.00
2017-11-27T00:14:08.368Z,0.00
2017-11-27T00:15:08.411Z,0.00
2017-11-27T00:16:08.452Z,0.00
2017-11-27T00:17:08.492Z,0.00
2017-11-27T00:18:08.551Z,0.00
2017-11-27T00:19:08.577Z,0.00
2017-11-27T00:20:08.626Z,0.00
2017-11-27T00:21:08.667Z,0.00
2017-11-27T00:22:08.707Z,0.00
2017-11-27T00:23:08.763Z,0.00
2017-11-27T00:24:08.793Z,0.00
2017-11-27T00:25:08.829Z,0.00
2017-11-27T00:26:08.870Z,0.00
2017-11-27T00:27:08.911Z,0.00
2017-11-27T00:28:08.969Z,0.00
2017-11-27T00:29:09.014Z,0.00
2017-11-27T00:30:09.037Z,0.00
2017-11-27T00:31:09.078Z,0.00
2017-11-27T00:32:09.127Z,0.00
2017-11-27T00:33:09.165Z,0.00
2017-11-27T00:34:09.221Z,0.00
2017-11-27T00:35:09.254Z,0.00
2017-11-27T00:36:09.293Z,0.00
2017-11-27T00:37:09.330Z,0.00
2017-11-27T00:38:09.376Z,0.00
2017-11-27T00:39:09.431Z,0.00
2017-11-27T00:40:09.458Z,0.00
2017-11-27T00:41:09.499Z,0.00
2017-11-27T00:42:09.540Z,0.00
2017-11-27T00:43:09.580Z,0.00
2017-11-27T00:44:10.251Z,0.00
2017-11-27T00:45:09.664Z,0.00
2017-11-27T00:46:09.708Z,0.00
2017-11-27T00:47:09.749Z,0.00
2017-11-27T00:48:09.791Z,0.00
2017-11-27T00:49:09.849Z,0.00
2017-11-27T00:50:09.891Z,0.00
2017-11-27T00:51:09.916Z,0.00
2017-11-27T00:52:09.969Z,0.00
2017-11-27T00:53:10.014Z,0.00
2017-11-27T00:54:10.062Z,0.00
2017-11-27T00:55:10.099Z,0.00
2017-11-27T00:56:10.126Z,0.00
2017-11-27T00:57:10.166Z,0.00
2017-11-27T00:58:10.214Z,0.00
2017-11-27T00:59:10.260Z,0.00
2017-11-27T01:00:10.315Z,0.00
2017-11-27T01:01:10.334Z,0.00
2017-11-27T01:02:10.377Z,0.00
2017-11-27T01:03:10.420Z,0.00
2017-11-27T01:04:10.468Z,0.00
2017-11-27T01:05:10.522Z,0.00
2017-11-27T01:06:10.544Z,0.00
2017-11-27T01:07:10.587Z,0.00
2017-11-27T01:08:10.629Z,0.00
2017-11-27T01:09:10.670Z,0.00
2017-11-27T01:10:10.728Z,0.00
2017-11-27T01:11:10.759Z,0.00
2017-11-27T01:12:10.800Z,0.00
2017-11-27T01:13:10.836Z,0.00
2017-11-27T01:14:10.878Z,0.00
2017-11-27T01:15:10.936Z,0.00
2017-11-27T01:16:10.965Z,0.00
2017-11-27T01:18:47.442Z,0.00
2017-11-27T01:19:47.474Z,0.00
2017-11-27T01:20:47.503Z,0.00
2017-11-27T01:21:47.547Z,0.00
2017-11-27T01:22:47.607Z,0.00
2017-11-27T01:23:47.629Z,0.00
2017-11-27T01:24:47.671Z,0.00
2017-11-27T01:25:47.715Z,0.00
2017-11-27T01:26:47.762Z,0.00
2017-11-27T01:27:47.813Z,0.00
2017-11-27T01:28:47.839Z,0.00
2017-11-27T01:29:47.882Z,0.00
2017-11-27T01:30:47.925Z,0.00
2017-11-27T01:31:47.980Z,0.00
2017-11-27T01:32:48.021Z,0.00
2017-11-27T01:33:48.048Z,0.00
2017-11-27T01:34:48.093Z,0.00
2017-11-27T01:35:48.134Z,0.00
2017-11-27T01:36:48.173Z,0.00
2017-11-27T01:37:48.246Z,0.00
2017-11-27T01:38:48.258Z,0.00
2017-11-27T01:39:48.302Z,0.00
2017-11-27T01:40:48.344Z,0.00
2017-11-27T01:41:48.380Z,0.00
2017-11-27T01:42:48.441Z,0.00
2017-11-27T01:43:48.465Z,0.00
2017-11-27T01:44:48.511Z,0.00
2017-11-27T01:45:48.561Z,0.00
2017-11-27T01:46:48.591Z,0.00
2017-11-27T01:47:48.648Z,0.00
2017-11-27T01:48:48.691Z,0.00
2017-11-27T01:49:48.716Z,0.00
2017-11-27T01:50:48.761Z,0.00
2017-11-27T01:51:48.801Z,0.00
2017-11-27T01:52:48.840Z,0.00
2017-11-27T01:53:48.900Z,0.00
2017-11-27T01:54:48.924Z,0.00
2017-11-27T01:55:48.966Z,0.00
2017-11-27T01:56:49.009Z,0.00
2017-11-27T01:57:49.050Z,0.00
2017-11-27T01:58:49.106Z,0.00
2017-11-27T01:59:49.148Z,0.00
2017-11-27T02:00:49.178Z,0.00
2017-11-27T02:01:49.217Z,0.00
2017-11-27T02:02:49.260Z,0.00
2017-11-27T02:03:49.300Z,0.00
2017-11-27T02:04:49.359Z,0.00
2017-11-27T02:05:49.384Z,0.00
2017-11-27T02:06:49.425Z,0.00
2017-11-27T02:07:49.468Z,0.00
2017-11-27T02:08:49.508Z,0.00
2017-11-27T02:09:49.572Z,0.00
2017-11-27T02:10:49.594Z,0.00
2017-11-27T02:11:49.642Z,0.00
2017-11-27T02:12:49.675Z,0.00
2017-11-27T02:13:49.716Z,0.00
2017-11-27T02:14:49.779Z,0.00
2017-11-27T02:15:49.799Z,0.00
2017-11-27T02:16:49.842Z,0.00
2017-11-27T02:17:49.891Z,0.00
2017-11-27T02:18:49.926Z,0.00
2017-11-27T02:19:49.982Z,0.00
2017-11-27T02:20:50.009Z,0.00
2017-11-27T02:21:50.051Z,0.00
2017-11-27T02:22:50.094Z,0.00
2017-11-27T02:23:50.133Z,0.00
2017-11-27T02:24:50.192Z,0.00
2017-11-27T02:25:50.233Z,0.00
2017-11-27T02:26:50.260Z,0.00
2017-11-27T02:27:50.301Z,0.00
2017-11-27T02:28:50.344Z,0.00
2017-11-27T02:29:50.387Z,0.00
2017-11-27T02:30:50.440Z,0.00
2017-11-27T02:31:50.468Z,0.00
2017-11-27T02:32:50.509Z,0.00
2017-11-27T02:33:50.553Z,0.00
2017-11-27T02:34:50.594Z,0.00
2017-11-27T02:35:50.652Z,0.00
2017-11-27T02:36:50.677Z,0.00
2017-11-27T02:37:50.721Z,0.00
2017-11-27T02:38:50.766Z,0.00
2017-11-27T02:39:50.805Z,0.00
2017-11-27T02:40:50.862Z,0.00
2017-11-27T02:41:50.890Z,0.00
2017-11-27T02:42:50.928Z,0.00
2017-11-27T02:43:50.969Z,0.00
2017-11-27T02:44:51.013Z,0.00
2017-11-27T02:45:51.067Z,0.00
2017-11-27T02:46:51.108Z,0.00
2017-11-27T02:47:51.934Z,0.00
2017-11-27T02:48:51.178Z,0.00
2017-11-27T02:49:51.223Z,0.00
2017-11-27T02:50:51.275Z,0.00
2017-11-27T02:51:51.304Z,0.00
2017-11-27T02:52:51.345Z,0.00
2017-11-27T02:53:51.385Z,0.00
2017-11-27T02:54:51.427Z,0.00
2017-11-27T02:55:51.487Z,0.00
2017-11-27T02:56:51.528Z,0.00
2017-11-27T02:57:51.554Z,0.00
2017-11-27T02:58:51.595Z,0.00
2017-11-27T02:59:51.637Z,0.00
2017-11-27T03:00:51.682Z,0.00
2017-11-27T03:01:51.747Z,0.00
2017-11-27T03:04:27.943Z,0.00
2017-11-27T03:05:27.966Z,0.00
2017-11-27T03:06:28.025Z,0.00
2017-11-27T03:07:28.052Z,0.00
2017-11-27T03:08:28.099Z,0.00
2017-11-27T03:09:28.133Z,0.00
2017-11-27T03:10:28.172Z,0.00
2017-11-27T03:11:28.240Z,0.00
2017-11-27T03:12:28.272Z,0.00
2017-11-27T03:13:28.299Z,0.00
2017-11-27T03:14:28.342Z,0.00
2017-11-27T03:15:28.382Z,0.00
2017-11-27T03:16:28.440Z,0.00
2017-11-27T03:19:04.167Z,0.00
2017-11-27T03:20:04.196Z,0.00
2017-11-27T03:21:04.234Z,0.00
2017-11-27T03:22:04.276Z,0.00
2017-11-27T03:23:04.336Z,0.00
2017-11-27T03:24:04.364Z,0.00
2017-11-27T03:25:04.401Z,0.00
2017-11-27T03:26:04.443Z,0.00
2017-11-27T03:27:04.486Z,0.00
2017-11-27T03:28:04.548Z,0.00
2017-11-27T03:29:04.565Z,0.00
2017-11-27T03:30:04.615Z,0.00
2017-11-27T03:31:04.655Z,0.00
2017-11-27T03:32:04.698Z,0.00
2017-11-27T03:33:04.753Z,0.00
2017-11-27T03:34:04.791Z,0.00
2017-11-27T03:35:04.821Z,0.00
2017-11-27T03:36:04.869Z,0.00
2017-11-27T03:37:04.902Z,0.00
2017-11-27T03:38:04.964Z,0.00
2017-11-27T03:39:04.984Z,0.00
2017-11-27T03:40:05.034Z,0.00
2017-11-27T03:41:05.069Z,0.00
2017-11-27T03:42:05.113Z,0.00
2017-11-27T03:43:05.170Z,0.00
2017-11-27T03:44:05.214Z,0.00
2017-11-27T03:45:05.239Z,0.00
2017-11-27T03:46:05.297Z,0.00
2017-11-27T03:47:05.324Z,0.00
2017-11-27T03:48:05.363Z,0.00
2017-11-27T03:49:05.429Z,0.00
2017-11-27T03:50:05.446Z,0.00
2017-11-27T03:51:05.489Z,0.00
2017-11-27T03:52:05.531Z,0.00
2017-11-27T03:53:05.571Z,0.00
2017-11-27T03:54:05.631Z,0.00
2017-11-27T03:55:05.660Z,0.00
2017-11-27T03:56:05.700Z,0.00
2017-11-27T03:57:05.743Z,0.00
2017-11-27T03:58:05.789Z,0.00
2017-11-27T03:59:05.842Z,0.00
2017-11-27T04:00:05.865Z,0.00
2017-11-27T04:01:05.907Z,0.00
2017-11-27T04:02:05.951Z,0.00
2017-11-27T04:03:06.016Z,0.00
2017-11-27T04:04:06.032Z,0.00
2017-11-27T04:05:06.075Z,0.00
2017-11-27T04:06:06.133Z,0.00
2017-11-27T04:07:06.161Z,0.00
2017-11-27T04:08:06.204Z,0.00
2017-11-27T04:09:06.251Z,0.00
2017-11-27T04:10:06.284Z,0.00
2017-11-27T04:11:06.343Z,0.00
2017-11-27T04:12:06.369Z,0.00
2017-11-27T04:13:06.411Z,0.00
2017-11-27T04:14:06.452Z,0.00
2017-11-27T04:15:06.497Z,0.00
2017-11-27T04:16:06.552Z,0.00
2017-11-27T04:17:06.580Z,0.00
2017-11-27T04:19:42.503Z,0.00
2017-11-27T04:20:42.545Z,0.00
2017-11-27T04:21:42.572Z,0.00
2017-11-27T04:22:42.613Z,0.00
2017-11-27T04:23:42.657Z,0.00
2017-11-27T04:24:42.702Z,0.00
2017-11-27T04:25:42.753Z,0.00
2017-11-27T04:26:42.788Z,0.00
2017-11-27T04:27:42.825Z,0.00
2017-11-27T04:28:42.865Z,0.00
2017-11-27T04:29:42.905Z,0.00
2017-11-27T04:30:42.968Z,0.00
2017-11-27T04:31:43.012Z,0.00
2017-11-27T04:32:43.038Z,0.00
2017-11-27T04:33:43.074Z,0.00
2017-11-27T04:34:43.114Z,0.00
2017-11-27T04:35:43.178Z,0.00
2017-11-27T04:36:43.198Z,0.00
2017-11-27T04:37:44.080Z,0.00
2017-11-27T04:38:43.284Z,0.00
2017-11-27T04:39:43.326Z,0.00
2017-11-27T04:40:43.383Z,0.00
2017-11-27T04:41:43.417Z,0.00
2017-11-27T04:42:43.467Z,0.00
2017-11-27T04:43:43.492Z,0.00
2017-11-27T04:44:43.535Z,0.00
2017-11-27T04:45:43.575Z,0.00
2017-11-27T04:46:43.634Z,0.00
2017-11-27T04:47:43.683Z,0.00
2017-11-27T04:48:43.704Z,0.00
2017-11-27T04:49:43.750Z,0.00
2017-11-27T04:50:43.787Z,0.00
2017-11-27T04:51:43.827Z,0.00
2017-11-27T04:52:43.888Z,0.00
2017-11-27T04:53:43.915Z,0.00
2017-11-27T04:54:43.951Z,0.00
2017-11-27T04:55:43.993Z,0.00
2017-11-27T04:56:44.058Z,0.00
2017-11-27T04:57:44.075Z,0.00
2017-11-27T04:58:44.138Z,0.00
2017-11-27T04:59:44.171Z,0.00
2017-11-27T05:00:44.201Z,0.00
2017-11-27T05:01:44.243Z,0.00
2017-11-27T05:02:44.288Z,0.00
2017-11-27T05:03:44.345Z,0.00
2017-11-27T05:04:44.368Z,0.00
2017-11-27T05:05:44.412Z,0.00
2017-11-27T05:06:44.456Z,0.00
2017-11-27T05:07:44.514Z,0.00
2017-11-27T05:08:44.537Z,0.00
2017-11-27T05:09:44.578Z,0.00
2017-11-27T05:10:44.627Z,0.00
2017-11-27T05:11:44.670Z,0.00
2017-11-27T05:12:44.719Z,0.00
2017-11-27T05:13:44.745Z,0.00
2017-11-27T05:14:44.793Z,0.00
2017-11-27T05:15:44.831Z,0.00
2017-11-27T05:16:44.879Z,0.00
2017-11-27T05:17:44.928Z,0.00
2017-11-27T05:20:21.860Z,0.00
2017-11-27T05:21:21.888Z,0.00
2017-11-27T05:22:21.928Z,0.00
2017-11-27T05:23:21.971Z,0.00
2017-11-27T05:24:22.011Z,0.00
2017-11-27T05:25:22.070Z,0.00
2017-11-27T05:26:22.096Z,0.00
2017-11-27T05:27:22.135Z,0.00
2017-11-27T05:28:22.194Z,0.00
2017-11-27T05:29:22.220Z,0.00
2017-11-27T05:30:22.266Z,0.00
2017-11-27T05:31:22.331Z,0.00
2017-11-27T05:32:22.346Z,0.00
2017-11-27T05:33:22.402Z,0.00
2017-11-27T05:34:22.427Z,0.00
2017-11-27T05:35:22.470Z,0.00
2017-11-27T05:36:22.533Z,0.00
2017-11-27T05:37:22.554Z,0.00
2017-11-27T05:38:22.596Z,0.00
2017-11-27T05:39:22.647Z,0.00
2017-11-27T05:40:22.681Z,0.00
2017-11-27T05:41:22.743Z,0.00
2017-11-27T05:42:22.769Z,0.00
2017-11-27T05:43:22.818Z,0.00
2017-11-27T05:44:22.863Z,0.00
2017-11-27T05:45:22.892Z,0.00
2017-11-27T05:46:22.931Z,0.00
2017-11-27T05:47:22.992Z,0.00
2017-11-27T05:48:23.017Z,0.00
2017-11-27T05:49:23.074Z,0.00
2017-11-27T05:50:23.100Z,0.00
2017-11-27T05:51:23.144Z,0.00
2017-11-27T05:52:23.187Z,0.00
2017-11-27T05:53:23.226Z,0.00
2017-11-27T05:54:23.285Z,0.00
2017-11-27T05:55:23.313Z,0.00
2017-11-27T05:56:23.347Z,0.00
2017-11-27T05:57:23.393Z,0.00
2017-11-27T05:58:23.435Z,0.00
2017-11-27T05:59:23.495Z,0.00
2017-11-27T06:00:23.537Z,0.00
2017-11-27T06:01:23.559Z,0.00
2017-11-27T06:02:23.617Z,0.00
2017-11-27T06:03:23.644Z,0.00
2017-11-27T06:04:23.685Z,0.00
2017-11-27T06:05:23.750Z,0.00
2017-11-27T06:06:23.783Z,0.00
2017-11-27T06:07:23.813Z,0.00
2017-11-27T06:08:23.858Z,0.00
2017-11-27T06:09:23.899Z,0.00
2017-11-27T06:10:23.956Z,0.00
2017-11-27T06:11:23.980Z,0.00
2017-11-27T06:12:24.021Z,0.00
2017-11-27T06:13:24.065Z,0.00
2017-11-27T06:14:24.106Z,0.00
2017-11-27T06:15:24.165Z,0.00
2017-11-27T06:16:24.190Z,0.00
2017-11-27T06:17:24.237Z,0.00
2017-11-27T06:18:24.275Z,0.00
2017-11-27T06:19:24.320Z,0.00
2017-11-27T06:20:24.375Z,0.00
2017-11-27T06:21:24.401Z,0.00
2017-11-27T06:22:24.445Z,0.00
2017-11-27T06:23:24.488Z,0.00
2017-11-27T06:24:24.529Z,0.00
2017-11-27T06:25:24.584Z,0.00
2017-11-27T06:26:24.612Z,0.00
2017-11-27T06:27:24.651Z,0.00
2017-11-27T06:28:24.712Z,0.00
2017-11-27T06:29:24.735Z,0.00
2017-11-27T06:30:24.780Z,0.00
2017-11-27T06:31:24.823Z,0.00
2017-11-27T06:32:24.886Z,0.00
2017-11-27T06:33:24.905Z,0.00
2017-11-27T06:34:24.948Z,0.00
2017-11-27T06:35:24.989Z,0.00
2017-11-27T06:36:25.030Z,0.00
2017-11-27T06:37:25.088Z,0.00
2017-11-27T06:38:25.120Z,0.00
2017-11-27T06:39:25.167Z,0.00
2017-11-27T06:40:25.197Z,0.00
2017-11-27T06:41:25.252Z,5.63
2017-11-27T06:42:25.302Z,5.63
2017-11-27T06:43:25.326Z,5.63
2017-11-27T06:44:25.368Z,5.63
2017-11-27T06:45:25.413Z,5.63
2017-11-27T06:46:25.452Z,5.63
2017-11-27T06:47:25.520Z,5.63
2017-11-27T06:48:25.538Z,5.63
2017-11-27T06:49:25.577Z,5.63
2017-11-27T06:50:25.619Z,11.25
2017-11-27T06:51:25.679Z,11.25
2017-11-27T06:52:25.704Z,11.25
2017-11-27T06:53:25.762Z,11.25
2017-11-27T06:54:25.788Z,11.25
2017-11-27T06:55:25.839Z,11.25
2017-11-27T06:56:25.892Z,11.25
2017-11-27T06:57:25.918Z,11.25
2017-11-27T06:58:25.966Z,16.88
2017-11-27T06:59:26.000Z,16.88
2017-11-27T07:00:26.041Z,16.88
2017-11-27T07:01:26.103Z,16.88
2017-11-27T07:02:26.123Z,16.88
2017-11-27T07:03:26.168Z,16.88
2017-11-27T07:04:26.210Z,22.50
2017-11-27T07:05:26.254Z,22.50
2017-11-27T07:06:26.741Z,22.50
2017-11-27T07:07:26.334Z,22.50
2017-11-27T07:08:26.378Z,22.50
2017-11-27T07:09:26.421Z,28.13
2017-11-27T07:10:26.480Z,28.13
2017-11-27T07:11:26.504Z,28.13
2017-11-27T07:12:26.562Z,28.13
2017-11-27T07:13:26.587Z,33.75
2017-11-27T07:14:26.629Z,33.75
2017-11-27T07:15:26.687Z,33.75
2017-11-27T07:16:26.722Z,33.75
2017-11-27T07:17:26.780Z,33.75
2017-11-27T07:18:26.802Z,39.38
2017-11-27T07:19:26.844Z,39.38
2017-11-27T07:20:26.883Z,39.38
2017-11-27T07:21:26.925Z,39.38
2017-11-27T07:22:26.983Z,39.38
2017-11-27T07:23:27.009Z,39.38
2017-11-27T07:24:27.051Z,39.38
2017-11-27T07:25:27.091Z,45.00
2017-11-27T07:26:27.133Z,45.00
2017-11-27T07:27:27.191Z,45.00
2017-11-27T07:28:27.218Z,45.00
2017-11-27T07:29:27.263Z,50.63
2017-11-27T07:30:27.302Z,50.63
2017-11-27T07:31:27.347Z,56.25
2017-11-27T07:32:27.401Z,56.25
2017-11-27T07:33:27.429Z,61.88
2017-11-27T07:36:03.457Z,67.50
2017-11-27T07:37:03.473Z,67.50
2017-11-27T07:38:03.535Z,67.50
2017-11-27T07:39:03.559Z,67.50
2017-11-27T07:40:03.601Z,67.50
2017-11-27T07:41:03.648Z,67.50
2017-11-27T07:42:03.683Z,61.88
2017-11-27T07:43:03.739Z,61.88
2017-11-27T07:44:03.770Z,67.50
2017-11-27T07:45:03.829Z,67.50
2017-11-27T07:46:03.850Z,73.13
2017-11-27T07:47:03.933Z,73.13
2017-11-27T07:48:03.958Z,73.13
2017-11-27T07:50:39.698Z,67.50
2017-11-27T07:51:39.725Z,67.50
2017-11-27T07:52:39.792Z,67.50
2017-11-27T07:53:39.810Z,67.50
2017-11-27T07:54:39.859Z,73.13
2017-11-27T07:55:39.913Z,73.13
2017-11-27T07:56:39.936Z,73.13
2017-11-27T07:57:40.008Z,78.75
2017-11-27T07:58:40.021Z,84.38
2017-11-27T07:59:40.097Z,90.00
2017-11-27T08:00:40.104Z,95.63
2017-11-27T08:01:40.188Z,101.25
2017-11-27T08:02:40.216Z,106.88
2017-11-27T08:03:40.235Z,106.88
2017-11-27T08:04:40.279Z,106.88
2017-11-27T08:05:40.341Z,106.88
2017-11-27T08:06:40.362Z,106.88
2017-11-27T08:07:40.401Z,112.50
2017-11-27T08:08:40.446Z,112.50
2017-11-27T08:09:40.491Z,101.25
2017-11-27T08:10:40.544Z,101.25
2017-11-27T08:11:40.571Z,106.88
2017-11-27T08:12:40.615Z,106.88
2017-11-27T08:13:40.675Z,106.88
2017-11-27T08:14:40.712Z,106.88
2017-11-27T08:15:40.764Z,106.88
2017-11-27T08:16:40.786Z,106.88
2017-11-27T08:17:40.835Z,101.25
2017-11-27T08:18:40.868Z,95.63
2017-11-27T08:19:40.911Z,90.00
2017-11-27T08:20:40.973Z,84.38
2017-11-27T08:21:40.995Z,90.00
2017-11-27T08:22:41.040Z,95.63
2017-11-27T08:23:41.081Z,106.88
2017-11-27T08:24:41.124Z,118.13
2017-11-27T08:25:41.183Z,135.00
2017-11-27T08:26:41.225Z,140.63
2017-11-27T08:27:41.253Z,140.63
2017-11-27T08:28:41.295Z,140.63
2017-11-27T08:29:41.339Z,146.25
2017-11-27T08:30:41.394Z,151.88
2017-11-27T08:31:41.439Z,151.88
2017-11-27T08:32:41.480Z,151.88
2017-11-27T08:33:41.516Z,151.88
2017-11-27T08:34:41.554Z,151.88
2017-11-27T08:35:41.595Z,151.88
2017-11-27T08:36:41.652Z,157.50
2017-11-27T08:37:41.682Z,163.13
2017-11-27T08:38:41.721Z,163.13
2017-11-27T08:39:41.771Z,174.38
2017-11-27T08:40:41.805Z,180.00
2017-11-27T08:41:41.881Z,191.25
2017-11-27T08:42:41.895Z,202.50
2017-11-27T08:43:41.934Z,213.75
2017-11-27T08:44:41.976Z,219.38
2017-11-27T08:45:42.029Z,213.75
2017-11-27T08:46:42.082Z,213.75
2017-11-27T08:47:42.107Z,196.88
2017-11-27T08:48:42.149Z,168.75
2017-11-27T08:49:42.190Z,140.63
2017-11-27T08:50:42.234Z,129.38
2017-11-27T08:51:42.297Z,140.63
2017-11-27T08:52:42.318Z,151.88
2017-11-27T08:53:42.360Z,157.50
2017-11-27T08:54:42.405Z,157.50
2017-11-27T08:55:42.452Z,151.88
2017-11-27T08:56:42.506Z,146.25
2017-11-27T08:57:42.528Z,123.75
2017-11-27T08:58:42.576Z,118.13
2017-11-27T08:59:42.615Z,118.13
2017-11-27T09:00:42.658Z,118.13
2017-11-27T09:01:42.722Z,118.13
2017-11-27T09:02:42.753Z,123.75
2017-11-27T09:03:42.803Z,129.38
2017-11-27T09:04:42.828Z,129.38
2017-11-27T09:05:42.871Z,151.88
2017-11-27T09:06:42.914Z,168.75
2017-11-27T09:07:42.956Z,174.38
2017-11-27T09:08:43.014Z,185.63
2017-11-27T09:09:43.042Z,196.88
2017-11-27T09:10:43.096Z,208.13
2017-11-27T09:11:43.128Z,213.75
2017-11-27T09:12:43.170Z,208.13
2017-11-27T09:13:43.229Z,196.88
2017-11-27T09:14:43.255Z,185.63
2017-11-27T09:15:43.299Z,168.75
2017-11-27T09:16:43.340Z,151.88
2017-11-27T09:17:43.385Z,146.25
2017-11-27T09:18:43.445Z,146.25
2017-11-27T09:19:43.469Z,146.25
2017-11-27T09:20:43.512Z,146.25
2017-11-27T09:21:43.556Z,146.25
2017-11-27T09:22:43.598Z,140.63
2017-11-27T09:23:43.657Z,146.25
2017-11-27T09:24:43.684Z,146.25
2017-11-27T09:25:43.726Z,151.88
2017-11-27T09:26:43.774Z,151.88
2017-11-27T09:27:43.812Z,146.25
2017-11-27T09:28:43.876Z,146.25
2017-11-27T09:29:43.896Z,146.25
2017-11-27T09:30:43.957Z,151.88
2017-11-27T09:31:43.983Z,157.50
2017-11-27T09:32:44.027Z,168.75
2017-11-27T09:33:44.087Z,180.00
2017-11-27T09:34:44.117Z,185.63
2017-11-27T09:35:44.175Z,191.25
2017-11-27T09:36:44.199Z,191.25
2017-11-27T09:37:44.243Z,185.63
2017-11-27T09:38:44.289Z,185.63
2017-11-27T09:39:44.334Z,185.63
2017-11-27T09:40:44.389Z,185.63
2017-11-27T09:41:44.421Z,191.25
2017-11-27T09:42:44.462Z,196.88
2017-11-27T09:43:44.503Z,202.50
2017-11-27T09:44:44.549Z,202.50
2017-11-27T09:45:44.603Z,208.13
2017-11-27T09:46:44.654Z,213.75
2017-11-27T09:47:44.670Z,213.75
2017-11-27T09:48:44.720Z,208.13
2017-11-27T09:49:44.761Z,208.13
2017-11-27T09:50:44.813Z,213.75
2017-11-27T09:51:44.870Z,236.25
2017-11-27T09:52:44.895Z,247.50
2017-11-27T09:53:44.939Z,253.13
2017-11-27T09:54:44.977Z,253.13
2017-11-27T09:55:45.024Z,258.75
2017-11-27T09:56:45.079Z,270.00
2017-11-27T09:57:45.132Z,281.25
2017-11-27T09:58:45.153Z,275.63
2017-11-27T09:59:45.193Z,270.00
2017-11-27T10:00:45.238Z,264.38
2017-11-27T10:01:45.280Z,270.00
2017-11-27T10:02:45.340Z,258.75
2017-11-27T10:03:45.367Z,264.38
2017-11-27T10:04:45.411Z,270.00
2017-11-27T10:05:45.458Z,281.25
2017-11-27T10:06:45.513Z,286.88
2017-11-27T10:07:45.560Z,286.88
2017-11-27T10:08:45.584Z,286.88
2017-11-27T10:09:45.643Z,286.88
2017-11-27T10:10:45.666Z,292.50
2017-11-27T10:11:45.715Z,292.50
2017-11-27T10:12:45.782Z,303.75
2017-11-27T10:13:45.818Z,309.38
2017-11-27T10:14:45.850Z,315.00
2017-11-27T10:15:45.892Z,315.00
2017-11-27T10:16:45.934Z,320.63
2017-11-27T10:17:45.980Z,326.25
2017-11-27T10:18:46.035Z,337.50
2017-11-27T10:19:46.064Z,343.13
2017-11-27T10:20:46.111Z,354.38
2017-11-27T10:21:46.150Z,360.00
2017-11-27T10:22:46.198Z,360.00
2017-11-27T10:23:46.268Z,348.75
2017-11-27T10:24:46.283Z,343.13
2017-11-27T10:25:46.346Z,343.13
2017-11-27T10:26:46.371Z,343.13
2017-11-27T10:27:46.414Z,348.75
2017-11-27T10:28:46.456Z,360.00
2017-11-27T10:29:46.524Z,376.88
2017-11-27T10:30:46.543Z,399.38
2017-11-27T10:31:46.608Z,421.88
2017-11-27T10:32:46.631Z,444.38
2017-11-27T10:33:46.674Z,450.00
2017-11-27T10:34:46.744Z,455.63
2017-11-27T10:35:46.761Z,455.63
2017-11-27T10:36:46.824Z,455.63
2017-11-27T10:37:46.856Z,450.00
2017-11-27T10:38:46.894Z,450.00
2017-11-27T10:39:46.946Z,450.00
2017-11-27T10:40:46.982Z,461.25
2017-11-27T10:41:47.049Z,466.88
2017-11-27T10:42:47.070Z,472.50
2017-11-27T10:43:47.111Z,495.00
2017-11-27T10:44:47.176Z,511.88
2017-11-27T10:45:47.201Z,483.75
2017-11-27T10:46:47.251Z,495.00
2017-11-27T10:47:47.291Z,489.38
2017-11-27T10:48:47.353Z,478.13
2017-11-27T10:49:48.231Z,472.50
2017-11-27T10:50:47.427Z,483.75
2017-11-27T10:51:47.472Z,500.63
2017-11-27T10:52:47.515Z,517.50
2017-11-27T10:53:47.580Z,534.38
2017-11-27T10:54:47.607Z,534.38
2017-11-27T10:55:47.648Z,523.13
2017-11-27T10:56:47.712Z,523.13
2017-11-27T10:57:47.738Z,517.50
2017-11-27T10:58:47.810Z,517.50
2017-11-27T10:59:47.827Z,511.88
2017-11-27T11:00:47.874Z,506.25
2017-11-27T11:01:47.918Z,500.63
2017-11-27T11:02:47.959Z,506.25
2017-11-27T11:03:48.040Z,506.25
2017-11-27T11:04:48.054Z,506.25
2017-11-27T11:05:48.102Z,495.00
2017-11-27T11:06:48.145Z,483.75
2017-11-27T11:07:48.198Z,483.75
2017-11-27T11:08:48.256Z,489.38
2017-11-27T11:09:48.281Z,495.00
2017-11-27T11:10:48.327Z,495.00
2017-11-27T11:11:48.370Z,489.38
2017-11-27T11:12:48.412Z,495.00
2017-11-27T11:13:48.477Z,500.63
2017-11-27T11:14:48.508Z,511.88
2017-11-27T11:15:48.555Z,523.13
2017-11-27T11:16:48.600Z,540.00
2017-11-27T11:17:48.652Z,551.25
2017-11-27T11:18:48.711Z,562.50
2017-11-27T11:19:48.735Z,573.75
2017-11-27T11:20:48.784Z,585.00
2017-11-27T11:21:48.825Z,596.25
2017-11-27T11:22:48.871Z,590.63
2017-11-27T11:23:48.943Z,590.63
2017-11-27T11:24:48.967Z,585.00
2017-11-27T11:25:49.009Z,579.38
2017-11-27T11:26:49.055Z,579.38
2017-11-27T11:27:49.100Z,585.00
2017-11-27T11:28:49.158Z,596.25
2017-11-27T11:29:49.186Z,596.25
2017-11-27T11:30:49.237Z,585.00
2017-11-27T11:31:49.282Z,568.13
2017-11-27T11:32:49.343Z,556.88
2017-11-27T11:33:49.375Z,556.88
2017-11-27T11:34:49.442Z,545.63
2017-11-27T11:35:49.464Z,551.25
2017-11-27T11:36:49.509Z,545.63
2017-11-27T11:37:49.564Z,556.88
2017-11-27T11:38:49.599Z,556.88
2017-11-27T11:39:49.670Z,551.25
2017-11-27T11:40:49.692Z,545.63
2017-11-27T11:41:49.741Z,540.00
2017-11-27T11:42:49.787Z,534.38
2017-11-27T11:43:49.832Z,523.13
2017-11-27T11:44:49.896Z,517.50
2017-11-27T11:45:49.926Z,511.88
2017-11-27T11:46:49.971Z,517.50
2017-11-27T11:47:50.016Z,511.88
2017-11-27T11:48:50.065Z,495.00
2017-11-27T11:49:50.128Z,455.63
2017-11-27T11:50:50.156Z,427.50
2017-11-27T11:51:50.202Z,410.63
2017-11-27T11:52:50.247Z,382.50
2017-11-27T11:53:50.292Z,365.63
2017-11-27T11:54:50.361Z,343.13
2017-11-27T11:55:50.401Z,326.25
2017-11-27T11:56:50.443Z,309.38
2017-11-27T11:57:50.484Z,298.13
2017-11-27T11:58:50.525Z,286.88
2017-11-27T11:59:50.569Z,270.00
2017-11-27T12:00:50.637Z,258.75
2017-11-27T12:01:50.663Z,258.75
2017-11-27T12:02:50.707Z,247.50
2017-11-27T12:03:50.759Z,247.50
2017-11-27T12:04:50.798Z,247.50
2017-11-27T12:05:50.865Z,253.13
2017-11-27T12:06:50.895Z,258.75
2017-11-27T12:07:50.933Z,270.00
2017-11-27T12:08:50.981Z,286.88
2017-11-27T12:09:51.031Z,337.50
2017-11-27T12:10:51.296Z,388.13
2017-11-27T12:11:51.120Z,427.50
2017-11-27T12:12:51.161Z,461.25
2017-11-27T12:13:51.215Z,483.75
2017-11-27T12:14:51.252Z,495.00
2017-11-27T12:15:51.313Z,506.25
2017-11-27T12:16:51.341Z,506.25
2017-11-27T12:17:51.386Z,506.25
2017-11-27T12:18:51.433Z,500.63
2017-11-27T12:19:51.481Z,495.00
2017-11-27T12:20:51.541Z,489.38
2017-11-27T12:21:51.573Z,489.38
2017-11-27T12:22:51.618Z,495.00
2017-11-27T12:23:51.660Z,495.00
2017-11-27T12:24:51.708Z,495.00
2017-11-27T12:25:51.768Z,495.00
2017-11-27T12:26:51.802Z,506.25
2017-11-27T12:27:51.865Z,500.63
2017-11-27T12:28:51.887Z,489.38
2017-11-27T12:29:51.936Z,483.75
2017-11-27T12:30:51.980Z,483.75
2017-11-27T12:31:52.041Z,478.13
2017-11-27T12:32:52.069Z,461.25
2017-11-27T12:33:52.136Z,455.63
2017-11-27T12:34:52.164Z,444.38
2017-11-27T12:35:52.209Z,444.38
2017-11-27T12:36:52.273Z,444.38
2017-11-27T12:37:52.305Z,444.38
2017-11-27T12:38:52.351Z,433.13
2017-11-27T12:39:52.411Z,427.50
2017-11-27T12:40:52.439Z,427.50
2017-11-27T12:41:52.488Z,433.13
2017-11-27T12:42:52.545Z,427.50
2017-11-27T12:43:52.577Z,433.13
2017-11-27T12:44:52.646Z,433.13
2017-11-27T12:45:52.669Z,427.50
2017-11-27T12:46:52.730Z,427.50
2017-11-27T12:47:52.762Z,427.50
2017-11-27T12:48:52.805Z,421.88
2017-11-27T12:49:52.856Z,421.88
2017-11-27T12:50:52.907Z,410.63
2017-11-27T12:51:52.959Z,410.63
2017-11-27T12:52:52.993Z,416.25
2017-11-27T12:53:53.035Z,421.88
2017-11-27T12:54:53.082Z,421.88
2017-11-27T12:55:53.142Z,427.50
2017-11-27T12:56:53.193Z,416.25
2017-11-27T12:57:53.221Z,410.63
2017-11-27T12:58:53.269Z,399.38
2017-11-27T12:59:53.310Z,365.63
2017-11-27T13:00:53.355Z,365.63
2017-11-27T13:01:53.419Z,360.00
2017-11-27T13:02:53.447Z,365.63
2017-11-27T13:03:53.493Z,331.88
2017-11-27T13:04:53.538Z,298.13
2017-11-27T13:05:53.602Z,281.25
2017-11-27T13:06:53.630Z,281.25